createdAt,value
2023-05-22T00:00:14.176Z,21.07
2023-05-22T00:02:43.140Z,20.10
2023-05-22T00:05:11.879Z,21.23
2023-05-22T00:07:39.259Z,20.83
2023-05-22T00:10:06.949Z,21.37
2023-05-22T00:12:33.379Z,21.13
2023-05-22T00:15:00.234Z,22.50
2023-05-22T00:17:27.119Z,22.67
2023-05-22T00:19:53.996Z,23.00
2023-05-22T00:22:20.957Z,22.17
2023-05-22T00:24:47.426Z,23.67
2023-05-22T00:27:13.904Z,22.37
2023-05-22T00:29:40.327Z,22.50
2023-05-22T00:32:07.115Z,21.63
2023-05-22T00:34:33.556Z,20.90
2023-05-22T00:37:00.144Z,21.40
2023-05-22T00:39:26.672Z,23.40
2023-05-22T00:41:53.066Z,21.57
2023-05-22T00:44:19.490Z,20.80
2023-05-22T00:46:46.097Z,21.97
2023-05-22T00:49:12.576Z,21.27
2023-05-22T00:51:39.080Z,21.00
2023-05-22T00:54:06.225Z,21.07
2023-05-22T00:56:33.529Z,20.67
2023-05-22T00:59:00.326Z,21.47
2023-05-22T01:01:33.361Z,19.83
2023-05-22T01:04:01.810Z,19.13
2023-05-22T01:06:28.511Z,20.13
2023-05-22T01:08:55.030Z,19.73
2023-05-22T01:11:28.269Z,21.07
2023-05-22T01:14:13.317Z,20.87
2023-05-22T01:16:59.598Z,20.27
2023-05-22T01:20:01.320Z,20.87
2023-05-22T01:22:58.656Z,20.23
2023-05-22T01:25:28.013Z,22.53
2023-05-22T01:28:22.402Z,24.07
2023-05-22T01:30:58.951Z,23.30
2023-05-22T01:33:28.861Z,24.83
2023-05-22T01:35:59.664Z,24.93
2023-05-22T01:38:26.569Z,25.10
2023-05-22T01:40:53.958Z,25.10
2023-05-22T01:43:20.396Z,23.73
2023-05-22T01:45:46.928Z,23.33
2023-05-22T01:48:13.490Z,21.97
2023-05-22T01:50:40.907Z,20.73
2023-05-22T01:53:40.043Z,22.70
2023-05-22T01:56:12.229Z,23.83
2023-05-22T01:58:56.568Z,19.50
2023-05-22T02:01:27.174Z,20.30
2023-05-22T02:03:57.340Z,20.47
2023-05-22T02:06:28.157Z,20.37
2023-05-22T02:08:54.984Z,19.43
2023-05-22T02:11:24.388Z,19.97
2023-05-22T02:13:51.725Z,21.00
2023-05-22T02:16:19.276Z,20.07
2023-05-22T02:18:46.650Z,20.60
2023-05-22T02:21:13.021Z,20.53
2023-05-22T02:23:40.035Z,20.77
2023-05-22T02:26:06.691Z,20.57
2023-05-22T02:28:33.242Z,20.73
2023-05-22T02:30:59.787Z,18.80
2023-05-22T02:33:27.047Z,19.90
2023-05-22T02:35:53.454Z,21.27
2023-05-22T02:38:20.345Z,19.23
2023-05-22T02:40:47.109Z,20.10
2023-05-22T02:43:13.527Z,21.37
2023-05-22T02:45:39.920Z,18.57
2023-05-22T02:48:06.487Z,19.93
2023-05-22T02:50:32.906Z,18.87
2023-05-22T02:52:59.332Z,19.20
2023-05-22T02:55:25.901Z,19.63
2023-05-22T02:57:52.317Z,18.60
2023-05-22T03:00:19.562Z,18.77
2023-05-22T03:02:46.045Z,19.47
2023-05-22T03:05:17.660Z,19.80
2023-05-22T03:07:48.044Z,20.53
2023-05-22T03:10:15.200Z,19.30
2023-05-22T03:12:41.545Z,20.83
2023-05-22T03:15:08.480Z,20.37
2023-05-22T03:17:34.990Z,19.50
2023-05-22T03:20:01.551Z,20.30
2023-05-22T03:22:27.997Z,19.90
2023-05-22T03:24:54.460Z,19.50
2023-05-22T03:27:21.257Z,19.83
2023-05-22T03:29:47.677Z,18.60
2023-05-22T03:32:14.196Z,19.17
2023-05-22T03:34:41.042Z,19.50
2023-05-22T03:37:08.944Z,18.63
2023-05-22T03:39:36.022Z,18.67
2023-05-22T03:42:02.481Z,21.00
2023-05-22T03:44:28.944Z,19.57
2023-05-22T03:46:55.660Z,19.70
2023-05-22T03:49:22.005Z,19.97
2023-05-22T03:51:48.421Z,20.53
2023-05-22T03:54:15.064Z,19.37
2023-05-22T03:56:41.483Z,19.60
2023-05-22T03:59:07.865Z,19.07
2023-05-22T04:01:34.577Z,19.27
2023-05-22T04:04:01.946Z,20.17
2023-05-22T04:06:28.334Z,20.77
2023-05-22T04:08:54.762Z,20.20
2023-05-22T04:11:22.079Z,20.40
2023-05-22T04:13:50.125Z,19.53
2023-05-22T04:16:17.651Z,18.90
2023-05-22T04:18:44.380Z,19.70
2023-05-22T04:21:10.821Z,19.67
2023-05-22T04:23:38.621Z,20.10
2023-05-22T04:26:06.146Z,19.20
2023-05-22T04:28:32.851Z,19.47
2023-05-22T04:30:59.530Z,19.73
2023-05-22T04:33:26.115Z,20.70
2023-05-22T04:35:52.503Z,19.73
2023-05-22T04:38:19.071Z,20.00
2023-05-22T04:40:45.544Z,20.50
2023-05-22T04:43:12.565Z,19.33
2023-05-22T04:45:39.358Z,20.63
2023-05-22T04:48:06.282Z,21.60
2023-05-22T04:50:32.846Z,21.30
2023-05-22T04:52:59.910Z,21.07
2023-05-22T04:55:26.341Z,21.83
2023-05-22T04:57:52.747Z,22.20
2023-05-22T05:00:19.861Z,21.40
2023-05-22T05:02:46.327Z,19.73
2023-05-22T05:05:12.785Z,21.30
2023-05-22T05:07:39.973Z,20.70
2023-05-22T05:10:07.374Z,20.90
2023-05-22T05:12:34.014Z,20.90
2023-05-22T05:15:00.635Z,20.37
2023-05-22T05:17:27.037Z,20.90
2023-05-22T05:19:53.660Z,23.10
2023-05-22T05:22:20.053Z,21.90
2023-05-22T05:24:46.726Z,20.70
2023-05-22T05:27:13.838Z,20.73
2023-05-22T05:29:41.296Z,21.07
2023-05-22T05:32:08.206Z,22.30
2023-05-22T05:34:35.012Z,24.53
2023-05-22T05:37:02.923Z,22.43
2023-05-22T05:39:29.627Z,22.00
2023-05-22T05:41:56.172Z,22.17
2023-05-22T05:44:22.602Z,21.33
2023-05-22T05:46:49.010Z,22.63
2023-05-22T05:49:15.453Z,22.27
2023-05-22T05:51:41.852Z,23.33
2023-05-22T05:54:08.218Z,24.97
2023-05-22T05:56:34.582Z,23.90
2023-05-22T05:59:01.110Z,23.70
2023-05-22T06:01:27.688Z,26.13
2023-05-22T06:03:54.235Z,29.10
2023-05-22T06:06:20.848Z,26.83
2023-05-22T06:08:47.239Z,29.77
2023-05-22T06:11:13.659Z,30.50
2023-05-22T06:13:40.059Z,32.83
2023-05-22T06:16:07.073Z,32.03
2023-05-22T06:18:33.547Z,32.97
2023-05-22T06:21:00.108Z,36.53
2023-05-22T06:23:26.667Z,45.83
2023-05-22T06:25:53.894Z,49.93
2023-05-22T06:28:20.342Z,49.97
2023-05-22T06:30:47.047Z,47.33
2023-05-22T06:33:14.426Z,46.53
2023-05-22T06:35:41.049Z,49.73
2023-05-22T06:38:07.831Z,56.33
2023-05-22T06:40:34.228Z,63.30
2023-05-22T06:43:01.601Z,64.63
2023-05-22T06:45:28.049Z,77.97
2023-05-22T06:47:54.816Z,85.77
2023-05-22T06:50:22.109Z,93.97
2023-05-22T06:52:49.165Z,91.33
2023-05-22T06:55:15.710Z,90.67
2023-05-22T06:57:42.168Z,90.43
2023-05-22T07:00:11.592Z,93.87
2023-05-22T07:02:38.365Z,95.40
2023-05-22T07:05:05.230Z,99.23
2023-05-22T07:07:31.595Z,102.80
2023-05-22T07:09:58.116Z,99.67
2023-05-22T07:12:26.251Z,98.60
2023-05-22T07:14:53.210Z,101.00
2023-05-22T07:17:21.665Z,101.50
2023-05-22T07:19:48.902Z,111.10
2023-05-22T07:22:15.587Z,105.00
2023-05-22T07:24:42.099Z,104.63
2023-05-22T07:27:09.292Z,103.93
2023-05-22T07:29:36.249Z,103.80
2023-05-22T07:32:02.721Z,106.30
2023-05-22T07:34:33.139Z,99.87
2023-05-22T07:37:07.999Z,100.53
2023-05-22T07:39:34.481Z,99.87
2023-05-22T07:42:01.829Z,95.23
2023-05-22T07:44:28.678Z,90.03
2023-05-22T07:46:55.742Z,89.50
2023-05-22T07:49:23.565Z,86.53
2023-05-22T07:51:50.020Z,88.97
2023-05-22T07:54:18.159Z,91.73
2023-05-22T07:56:45.895Z,84.07
2023-05-22T07:59:12.543Z,88.67
2023-05-22T08:01:40.339Z,96.00
2023-05-22T08:04:06.963Z,87.57
2023-05-22T08:06:36.756Z,83.53
2023-05-22T08:09:04.760Z,83.90
2023-05-22T08:11:31.190Z,91.40
2023-05-22T08:13:57.578Z,84.63
2023-05-22T08:16:24.065Z,83.50
2023-05-22T08:18:51.143Z,86.77
2023-05-22T08:21:18.654Z,88.13
2023-05-22T08:23:45.194Z,93.37
2023-05-22T08:26:11.861Z,88.73
2023-05-22T08:28:41.927Z,87.17
2023-05-22T08:31:08.374Z,94.90
2023-05-22T08:33:34.780Z,85.97
2023-05-22T08:36:01.273Z,84.37
2023-05-22T08:38:27.809Z,83.60
2023-05-22T08:40:57.135Z,79.43
2023-05-22T08:43:24.083Z,79.20
2023-05-22T08:45:59.625Z,79.57
2023-05-22T08:48:30.695Z,80.03
2023-05-22T08:51:01.383Z,76.23
2023-05-22T08:53:29.217Z,80.73
2023-05-22T08:55:56.188Z,75.67
2023-05-22T08:58:23.175Z,70.47
2023-05-22T09:00:49.594Z,61.67
2023-05-22T09:03:16.380Z,59.77
2023-05-22T09:05:45.313Z,61.33
2023-05-22T09:08:19.697Z,58.40
2023-05-22T09:10:47.299Z,56.63
2023-05-22T09:13:26.255Z,52.00
2023-05-22T09:15:53.078Z,51.20
2023-05-22T09:18:20.401Z,51.80
2023-05-22T09:20:47.002Z,51.07
2023-05-22T09:23:15.639Z,50.90
2023-05-22T09:25:43.134Z,54.13
2023-05-22T09:28:11.412Z,57.07
2023-05-22T09:30:38.220Z,52.83
2023-05-22T09:33:07.140Z,54.43
2023-05-22T09:35:35.641Z,51.97
2023-05-22T09:38:02.100Z,52.50
2023-05-22T09:40:29.307Z,54.57
2023-05-22T09:42:55.732Z,51.73
2023-05-22T09:45:26.554Z,52.37
2023-05-22T09:47:53.093Z,48.03
2023-05-22T09:50:19.666Z,48.47
2023-05-22T09:52:47.636Z,47.93
2023-05-22T09:55:14.525Z,48.07
2023-05-22T09:57:45.399Z,46.37
2023-05-22T10:00:15.121Z,46.40
2023-05-22T10:02:46.833Z,42.10
2023-05-22T10:05:23.930Z,46.60
2023-05-22T10:07:53.191Z,44.30
2023-05-22T10:10:22.914Z,49.03
2023-05-22T10:13:03.279Z,53.33
2023-05-22T10:15:30.981Z,53.60
2023-05-22T10:17:58.201Z,62.10
2023-05-22T10:20:26.858Z,56.53
2023-05-22T10:22:54.853Z,52.60
2023-05-22T10:25:22.267Z,43.97
2023-05-22T10:27:55.022Z,43.77
2023-05-22T10:30:30.749Z,41.40
2023-05-22T10:33:21.314Z,43.47
2023-05-22T10:36:08.624Z,42.77
2023-05-22T10:39:12.265Z,35.10
2023-05-22T10:41:39.953Z,34.67
2023-05-22T10:44:06.792Z,36.83
2023-05-22T10:46:36.404Z,38.37
2023-05-22T10:49:02.987Z,41.37
2023-05-22T10:51:29.690Z,42.57
2023-05-22T10:54:02.176Z,41.17
2023-05-22T10:56:36.011Z,42.27
2023-05-22T11:02:01.062Z,39.63
2023-05-22T11:02:20.505Z,43.40
2023-05-22T11:04:27.623Z,40.40
2023-05-22T11:07:05.212Z,41.37
2023-05-22T11:09:45.704Z,41.30
2023-05-22T11:12:12.050Z,41.77
2023-05-22T11:14:38.722Z,41.53
2023-05-22T11:17:08.315Z,42.63
2023-05-22T11:19:34.968Z,38.53
2023-05-22T11:22:03.455Z,39.73
2023-05-22T11:24:36.866Z,39.17
2023-05-22T11:27:07.268Z,39.53
2023-05-22T11:29:34.041Z,34.73
2023-05-22T11:32:02.062Z,36.13
2023-05-22T11:34:28.938Z,35.67
2023-05-22T11:36:59.768Z,35.93
2023-05-22T11:39:26.826Z,37.10
2023-05-22T11:41:53.379Z,34.47
2023-05-22T11:44:20.055Z,35.10
2023-05-22T11:46:46.640Z,38.43
2023-05-22T11:49:13.318Z,36.57
2023-05-22T11:51:40.693Z,38.70
2023-05-22T11:54:07.761Z,38.13
2023-05-22T11:56:34.172Z,39.00
2023-05-22T11:59:00.613Z,39.60
2023-05-22T12:01:27.015Z,44.30
2023-05-22T12:03:54.319Z,37.53
2023-05-22T12:06:21.111Z,38.20
2023-05-22T12:08:47.900Z,42.08
2023-05-22T12:11:14.439Z,42.80
2023-05-22T12:13:41.293Z,41.33
2023-05-22T12:16:22.740Z,36.83
2023-05-22T12:18:53.321Z,36.40
2023-05-22T12:21:20.899Z,37.22
2023-05-22T12:23:50.122Z,40.17
2023-05-22T12:26:17.120Z,41.15
2023-05-22T12:28:44.059Z,34.97
2023-05-22T12:31:10.538Z,32.53
2023-05-22T12:33:39.699Z,36.93
2023-05-22T12:36:10.305Z,35.30
2023-05-22T12:38:38.273Z,32.93
2023-05-22T12:41:04.989Z,35.30
2023-05-22T12:43:31.384Z,38.80
2023-05-22T12:45:58.907Z,36.22
2023-05-22T12:48:26.416Z,35.50
2023-05-22T12:50:53.417Z,37.13
2023-05-22T12:53:19.931Z,34.85
2023-05-22T12:55:46.529Z,35.90
2023-05-22T12:58:13.013Z,38.42
2023-05-22T13:00:39.714Z,35.05
2023-05-22T13:03:06.673Z,37.22
2023-05-22T13:05:33.175Z,34.28
2023-05-22T13:07:59.768Z,36.28
2023-05-22T13:10:26.189Z,35.15
2023-05-22T13:12:52.661Z,36.47
2023-05-22T13:15:19.078Z,33.88
2023-05-22T13:17:45.972Z,37.03
2023-05-22T13:20:13.660Z,38.72
2023-05-22T13:22:41.729Z,40.03
2023-05-22T13:25:08.551Z,36.45
2023-05-22T13:27:35.165Z,35.70
2023-05-22T13:30:01.936Z,33.42
2023-05-22T13:32:28.407Z,32.60
2023-05-22T13:34:54.891Z,38.33
2023-05-22T13:37:21.471Z,34.63
2023-05-22T13:39:47.952Z,29.85
2023-05-22T13:42:14.608Z,36.03
2023-05-22T13:44:41.046Z,36.20
2023-05-22T13:47:07.643Z,32.88
2023-05-22T13:49:34.390Z,35.97
2023-05-22T13:52:00.871Z,32.25
2023-05-22T13:54:27.659Z,32.60
2023-05-22T13:56:54.163Z,33.25
2023-05-22T13:59:20.613Z,36.45
2023-05-22T14:01:46.969Z,33.20
2023-05-22T14:04:13.440Z,34.10
2023-05-22T14:06:39.847Z,44.17
2023-05-22T14:09:07.914Z,38.55
2023-05-22T14:11:34.518Z,35.92
2023-05-22T14:14:00.972Z,36.22
2023-05-22T14:16:27.557Z,34.80
2023-05-22T14:18:54.071Z,35.25
2023-05-22T14:21:20.593Z,39.70
2023-05-22T14:23:47.071Z,39.47
2023-05-22T14:26:14.449Z,37.17
2023-05-22T14:28:41.584Z,36.40
2023-05-22T14:31:08.061Z,38.38
2023-05-22T14:33:35.743Z,38.42
2023-05-22T14:36:02.473Z,35.50
2023-05-22T14:38:34.839Z,42.33
2023-05-22T14:41:01.707Z,38.95
2023-05-22T14:43:28.384Z,39.15
2023-05-22T14:45:56.204Z,41.60
2023-05-22T14:48:26.471Z,41.03
2023-05-22T14:50:56.303Z,44.33
2023-05-22T14:53:23.216Z,42.25
2023-05-22T14:55:49.759Z,43.92
2023-05-22T14:58:16.331Z,44.33
2023-05-22T15:00:42.799Z,44.97
2023-05-22T15:03:09.508Z,48.58
2023-05-22T15:05:36.047Z,39.83
2023-05-22T15:08:02.545Z,44.90
2023-05-22T15:10:29.057Z,46.17
2023-05-22T15:12:55.431Z,43.28
2023-05-22T15:15:21.944Z,42.78
2023-05-22T15:17:48.449Z,52.75
2023-05-22T15:20:15.033Z,45.17
2023-05-22T15:22:41.482Z,40.28
2023-05-22T15:25:11.489Z,44.67
2023-05-22T15:27:39.267Z,47.08
2023-05-22T15:30:06.651Z,42.85
2023-05-22T15:32:33.361Z,47.78
2023-05-22T15:35:00.007Z,45.42
2023-05-22T15:37:27.309Z,45.78
2023-05-22T15:39:54.222Z,47.33
2023-05-22T15:42:20.715Z,48.63
2023-05-22T15:44:47.261Z,46.33
2023-05-22T15:47:13.733Z,46.88
2023-05-22T15:49:40.100Z,48.65
2023-05-22T15:52:06.494Z,45.03
2023-05-22T15:54:33.134Z,46.67
2023-05-22T15:56:59.530Z,48.58
2023-05-22T15:59:25.951Z,50.72
2023-05-22T16:01:52.375Z,52.95
2023-05-22T16:04:18.788Z,54.20
2023-05-22T16:06:45.173Z,49.28
2023-05-22T16:09:11.654Z,49.35
2023-05-22T16:11:38.141Z,63.33
2023-05-22T16:14:04.809Z,59.22
2023-05-22T16:16:31.453Z,55.63
2023-05-22T16:18:58.212Z,57.20
2023-05-22T16:21:24.791Z,55.70
2023-05-22T16:23:51.285Z,59.40
2023-05-22T16:26:17.765Z,57.40
2023-05-22T16:28:44.199Z,55.63
2023-05-22T16:31:10.684Z,55.20
2023-05-22T16:33:37.590Z,53.35
2023-05-22T16:36:04.452Z,51.40
2023-05-22T16:38:31.272Z,49.20
2023-05-22T16:40:58.001Z,55.28
2023-05-22T16:43:24.494Z,52.95
2023-05-22T16:45:51.372Z,48.40
2023-05-22T16:48:18.318Z,45.13
2023-05-22T16:50:46.531Z,52.80
2023-05-22T16:53:16.669Z,41.80
2023-05-22T16:55:43.376Z,48.97
2023-05-22T16:58:11.625Z,42.10
2023-05-22T17:00:39.980Z,43.45
2023-05-22T17:03:08.427Z,46.25
2023-05-22T17:05:36.100Z,43.97
2023-05-22T17:08:03.064Z,48.50
2023-05-22T17:10:29.616Z,52.38
2023-05-22T17:12:56.052Z,51.65
2023-05-22T17:15:22.666Z,48.88
2023-05-22T17:17:49.146Z,51.70
2023-05-22T17:20:16.627Z,54.95
2023-05-22T17:22:43.138Z,47.20
2023-05-22T17:25:09.976Z,50.38
2023-05-22T17:27:36.983Z,50.50
2023-05-22T17:30:04.852Z,49.30
2023-05-22T17:32:31.492Z,51.92
2023-05-22T17:34:58.219Z,51.88
2023-05-22T17:37:24.647Z,48.80
2023-05-22T17:39:51.684Z,55.63
2023-05-22T17:42:18.129Z,44.28
2023-05-22T17:44:44.710Z,44.33
2023-05-22T17:47:11.104Z,40.70
2023-05-22T17:49:37.625Z,46.25
2023-05-22T17:52:04.253Z,48.33
2023-05-22T17:54:36.680Z,40.40
2023-05-22T17:57:04.168Z,42.55
2023-05-22T17:59:32.386Z,46.20
2023-05-22T18:01:58.988Z,46.35
2023-05-22T18:04:25.450Z,41.63
2023-05-22T18:06:52.201Z,37.78
2023-05-22T18:09:18.622Z,46.28
2023-05-22T18:11:45.145Z,44.95
2023-05-22T18:14:11.566Z,41.67
2023-05-22T18:16:38.062Z,38.10
2023-05-22T18:19:04.685Z,36.17
2023-05-22T18:21:32.078Z,38.03
2023-05-22T18:23:58.594Z,30.60
2023-05-22T18:26:25.048Z,32.22
2023-05-22T18:28:51.469Z,21.38
2023-05-22T18:31:17.955Z,21.15
2023-05-22T18:33:45.112Z,16.17
2023-05-22T18:36:13.015Z,13.65
2023-05-22T18:38:39.411Z,12.93
2023-05-22T18:41:06.480Z,11.98
2023-05-22T18:43:33.199Z,11.43
2023-05-22T18:45:59.770Z,11.77
2023-05-22T18:48:27.303Z,12.02
2023-05-22T18:50:57.377Z,11.88
2023-05-22T18:53:25.125Z,10.55
2023-05-22T18:55:52.243Z,10.38
2023-05-22T18:58:18.688Z,10.52
2023-05-22T19:00:45.609Z,10.13
2023-05-22T19:03:12.330Z,10.07
2023-05-22T19:05:38.783Z,9.65
2023-05-22T19:08:05.797Z,10.75
2023-05-22T19:10:32.954Z,9.20
2023-05-22T19:12:59.422Z,9.50
2023-05-22T19:15:26.013Z,9.77
2023-05-22T19:17:52.533Z,9.63
2023-05-22T19:20:19.049Z,12.17
2023-05-22T19:22:45.673Z,13.73
2023-05-22T19:25:12.087Z,10.50
2023-05-22T19:27:39.484Z,11.00
2023-05-22T19:30:07.147Z,10.80
2023-05-22T19:32:33.637Z,14.87
2023-05-22T19:35:00.178Z,9.60
2023-05-22T19:37:26.603Z,10.77
2023-05-22T19:39:54.158Z,13.07
2023-05-22T19:42:20.607Z,11.60
2023-05-22T19:44:47.202Z,12.47
2023-05-22T19:47:13.777Z,11.82
2023-05-22T19:49:40.642Z,12.63
2023-05-22T19:52:07.167Z,12.03
2023-05-22T19:54:35.118Z,11.77
2023-05-22T19:57:02.969Z,12.10
2023-05-22T19:59:29.401Z,12.47
2023-05-22T20:01:56.220Z,11.50
2023-05-22T20:04:23.062Z,11.43
2023-05-22T20:06:49.502Z,10.87
2023-05-22T20:09:16.271Z,11.13
2023-05-22T20:11:42.670Z,18.23
2023-05-22T20:14:09.177Z,13.67
2023-05-22T20:16:35.886Z,12.67
2023-05-22T20:19:03.837Z,12.90
2023-05-22T20:21:30.990Z,12.30
2023-05-22T20:23:57.663Z,13.97
2023-05-22T20:26:24.301Z,13.30
2023-05-22T20:28:50.964Z,12.77
2023-05-22T20:31:19.366Z,13.13
2023-05-22T20:33:45.839Z,13.23
2023-05-22T20:36:14.995Z,12.70
2023-05-22T20:38:42.547Z,14.27
2023-05-22T20:41:09.961Z,14.37
2023-05-22T20:43:36.718Z,12.70
2023-05-22T20:46:03.199Z,14.20
2023-05-22T20:48:29.681Z,14.20
2023-05-22T20:50:56.125Z,12.73
2023-05-22T20:53:22.553Z,12.87
2023-05-22T20:55:48.957Z,12.43
2023-05-22T20:58:16.598Z,13.80
2023-05-22T21:00:43.082Z,13.57
2023-05-22T21:03:09.587Z,13.33
2023-05-22T21:05:36.730Z,15.00
2023-05-22T21:08:03.174Z,13.20
2023-05-22T21:10:29.544Z,18.60
2023-05-22T21:12:56.035Z,15.60
2023-05-22T21:15:22.419Z,13.53
2023-05-22T21:17:48.964Z,14.87
2023-05-22T21:20:15.616Z,22.47
2023-05-22T21:22:42.205Z,12.17
2023-05-22T21:25:09.314Z,17.10
2023-05-22T21:27:35.941Z,12.20
2023-05-22T21:30:02.393Z,15.73
2023-05-22T21:32:28.894Z,11.57
2023-05-22T21:34:55.444Z,11.03
2023-05-22T21:37:21.875Z,10.97
2023-05-22T21:39:48.330Z,11.20
2023-05-22T21:42:16.227Z,10.30
2023-05-22T21:44:42.708Z,9.60
2023-05-22T21:47:09.586Z,9.80
2023-05-22T21:49:38.741Z,10.23
2023-05-22T21:52:05.868Z,8.70
2023-05-22T21:54:32.350Z,8.17
2023-05-22T21:56:58.842Z,12.63
2023-05-22T21:59:25.292Z,8.63
2023-05-22T22:01:51.880Z,10.07
2023-05-22T22:04:18.348Z,8.20
2023-05-22T22:06:44.876Z,7.80
2023-05-22T22:09:11.267Z,7.50
2023-05-22T22:11:37.651Z,10.50
2023-05-22T22:14:04.392Z,8.07
2023-05-22T22:16:35.664Z,9.03
2023-05-22T22:19:03.207Z,7.70
2023-05-22T22:21:29.874Z,7.13
2023-05-22T22:23:56.409Z,9.30
2023-05-22T22:26:22.842Z,8.60
2023-05-22T22:28:49.193Z,8.90
2023-05-22T22:31:15.733Z,10.97
2023-05-22T22:33:42.111Z,7.60
2023-05-22T22:36:08.831Z,9.37
2023-05-22T22:38:35.518Z,9.83
2023-05-22T22:41:02.034Z,7.53
2023-05-22T22:43:29.065Z,7.57
2023-05-22T22:45:55.949Z,7.93
2023-05-22T22:48:22.652Z,7.60
2023-05-22T22:50:49.403Z,7.53
2023-05-22T22:53:16.000Z,9.70
2023-05-22T22:55:42.654Z,16.80
2023-05-22T22:58:09.512Z,7.90
2023-05-22T23:00:36.681Z,7.00
2023-05-22T23:03:03.231Z,6.80
2023-05-22T23:05:29.753Z,7.30
2023-05-22T23:07:58.310Z,6.83
2023-05-22T23:10:24.724Z,6.90
2023-05-22T23:12:51.137Z,7.00
2023-05-22T23:15:17.880Z,7.20
2023-05-22T23:17:44.388Z,7.53
2023-05-22T23:20:11.080Z,6.40
2023-05-22T23:22:37.522Z,9.27
2023-05-22T23:25:04.166Z,7.37
2023-05-22T23:27:30.761Z,7.50
2023-05-22T23:29:58.220Z,7.53
2023-05-22T23:32:24.703Z,6.77
2023-05-22T23:34:51.125Z,8.03
2023-05-22T23:37:17.621Z,7.37
2023-05-22T23:39:44.048Z,7.70
2023-05-22T23:42:10.892Z,10.60
2023-05-22T23:44:37.724Z,8.27
2023-05-22T23:47:04.416Z,10.80
2023-05-22T23:49:30.936Z,7.83
2023-05-22T23:51:57.436Z,8.07
2023-05-22T23:58:04.454Z,9.03
